createdAt,value
2022-08-21T00:01:05.807Z,27.30
2022-08-21T00:03:35.498Z,27.30
2022-08-21T00:06:03.821Z,27.30
2022-08-21T00:08:31.566Z,27.30
2022-08-21T00:10:59.862Z,27.40
2022-08-21T00:13:27.647Z,27.40
2022-08-21T00:15:55.573Z,27.30
2022-08-21T00:18:23.737Z,27.30
2022-08-21T00:20:51.427Z,27.30
2022-08-21T00:23:19.143Z,27.40
2022-08-21T00:25:47.869Z,27.40
2022-08-21T00:28:15.711Z,27.40
2022-08-21T00:30:44.609Z,27.30
2022-08-21T00:33:13.421Z,27.30
2022-08-21T00:35:42.494Z,27.30
2022-08-21T00:38:10.700Z,27.30
2022-08-21T00:40:41.141Z,27.30
2022-08-21T00:43:10.125Z,27.30
2022-08-21T00:45:38.397Z,27.30
2022-08-21T00:48:06.272Z,27.30
2022-08-21T00:50:35.971Z,27.30
2022-08-21T00:53:04.916Z,27.30
2022-08-21T00:55:34.015Z,27.30
2022-08-21T00:58:05.402Z,27.30
2022-08-21T01:00:39.809Z,27.30
2022-08-21T01:03:09.782Z,27.30
2022-08-21T01:05:38.888Z,27.30
2022-08-21T01:08:07.403Z,27.30
2022-08-21T01:10:36.283Z,27.30
2022-08-21T01:13:09.104Z,27.30
2022-08-21T01:15:38.175Z,27.20
2022-08-21T01:18:07.077Z,27.20
2022-08-21T01:20:35.981Z,27.20
2022-08-21T01:23:04.635Z,27.20
2022-08-21T01:25:33.792Z,27.20
2022-08-21T01:28:05.834Z,27.20
2022-08-21T01:30:35.184Z,27.20
2022-08-21T01:33:02.966Z,27.20
2022-08-21T01:35:31.167Z,27.20
2022-08-21T01:37:59.212Z,27.10
2022-08-21T01:40:27.065Z,27.20
2022-08-21T01:42:54.766Z,27.20
2022-08-21T01:45:23.089Z,27.20
2022-08-21T01:47:50.871Z,27.20
2022-08-21T01:50:19.460Z,27.20
2022-08-21T01:52:47.765Z,27.20
2022-08-21T01:55:16.159Z,27.20
2022-08-21T01:57:44.107Z,27.20
2022-08-21T02:00:13.599Z,27.10
2022-08-21T02:02:42.472Z,27.10
2022-08-21T02:05:12.184Z,27.10
2022-08-21T02:07:40.975Z,27.20
2022-08-21T02:10:09.524Z,27.20
2022-08-21T02:12:37.717Z,27.10
2022-08-21T02:15:06.157Z,27.10
2022-08-21T02:17:45.184Z,27.10
2022-08-21T02:20:17.004Z,27.10
2022-08-21T02:22:44.779Z,27.10
2022-08-21T02:25:12.652Z,27.10
2022-08-21T02:27:44.166Z,27.10
2022-08-21T02:30:13.329Z,27.10
2022-08-21T02:32:41.759Z,27.10
2022-08-21T02:35:10.413Z,27.10
2022-08-21T02:37:49.136Z,27.10
2022-08-21T02:40:18.630Z,27.10
2022-08-21T02:42:46.463Z,27.10
2022-08-21T02:45:14.835Z,27.00
2022-08-21T02:47:52.923Z,27.00
2022-08-21T02:50:26.665Z,27.00
2022-08-21T02:52:55.882Z,27.00
2022-08-21T02:55:24.915Z,27.10
2022-08-21T02:57:52.618Z,27.00
2022-08-21T03:00:21.754Z,27.00
2022-08-21T03:02:49.742Z,27.00
2022-08-21T03:05:17.656Z,27.00
2022-08-21T03:07:47.117Z,27.00
2022-08-21T03:10:15.448Z,27.00
2022-08-21T03:12:43.484Z,27.00
2022-08-21T03:15:13.008Z,27.00
2022-08-21T03:17:40.729Z,26.90
2022-08-21T03:20:09.171Z,27.00
2022-08-21T03:22:37.227Z,27.00
2022-08-21T03:25:06.684Z,26.90
2022-08-21T03:27:35.361Z,26.90
2022-08-21T03:30:05.752Z,26.90
2022-08-21T03:32:34.035Z,26.90
2022-08-21T03:35:01.860Z,26.90
2022-08-21T03:37:30.623Z,26.90
2022-08-21T03:39:58.859Z,26.90
2022-08-21T03:42:26.665Z,26.90
2022-08-21T03:44:54.788Z,26.90
2022-08-21T03:47:23.462Z,26.90
2022-08-21T03:49:51.515Z,26.90
2022-08-21T03:52:19.633Z,26.90
2022-08-21T03:54:47.586Z,26.90
2022-08-21T03:57:15.612Z,26.80
2022-08-21T03:59:44.625Z,26.80
2022-08-21T04:02:14.565Z,26.80
2022-08-21T04:04:42.769Z,26.80
2022-08-21T04:07:10.441Z,26.80
2022-08-21T04:09:38.174Z,26.80
2022-08-21T04:12:06.964Z,26.80
2022-08-21T04:14:34.574Z,26.80
2022-08-21T04:17:02.455Z,26.80
2022-08-21T04:19:30.662Z,26.80
2022-08-21T04:21:58.688Z,26.80
2022-08-21T04:24:26.280Z,26.80
2022-08-21T04:26:58.095Z,26.80
2022-08-21T04:29:25.807Z,26.80
2022-08-21T04:31:53.496Z,26.80
2022-08-21T04:34:21.903Z,26.70
2022-08-21T04:36:49.544Z,26.70
2022-08-21T04:39:17.242Z,26.70
2022-08-21T04:41:45.875Z,26.70
2022-08-21T04:44:13.546Z,26.70
2022-08-21T04:46:41.373Z,26.70
2022-08-21T04:49:09.552Z,26.70
2022-08-21T04:51:38.624Z,26.70
2022-08-21T04:54:09.313Z,26.70
2022-08-21T04:56:48.676Z,26.70
2022-08-21T04:59:22.346Z,26.70
2022-08-21T05:01:50.896Z,26.70
2022-08-21T05:04:21.855Z,26.70
2022-08-21T05:06:51.186Z,26.70
2022-08-21T05:09:19.795Z,26.70
2022-08-21T05:11:47.789Z,26.70
2022-08-21T05:14:17.260Z,26.60
2022-08-21T05:16:45.231Z,26.70
2022-08-21T05:19:13.083Z,26.70
2022-08-21T05:21:42.738Z,26.60
2022-08-21T05:24:11.511Z,26.60
2022-08-21T05:26:45.416Z,26.60
2022-08-21T05:29:16.514Z,26.60
2022-08-21T05:31:45.081Z,26.60
2022-08-21T05:34:13.251Z,26.60
2022-08-21T05:36:44.630Z,26.60
2022-08-21T05:39:12.331Z,26.60
2022-08-21T05:41:40.024Z,26.60
2022-08-21T05:44:10.197Z,26.60
2022-08-21T05:46:39.567Z,26.60
2022-08-21T05:49:07.193Z,26.60
2022-08-21T05:51:35.418Z,26.60
2022-08-21T05:54:03.372Z,26.50
2022-08-21T05:56:31.021Z,26.50
2022-08-21T05:58:59.311Z,26.60
2022-08-21T06:01:27.063Z,26.50
2022-08-21T06:03:56.760Z,26.50
2022-08-21T06:06:25.075Z,26.50
2022-08-21T06:08:53.839Z,26.50
2022-08-21T06:11:23.809Z,26.50
2022-08-21T06:13:56.060Z,26.40
2022-08-21T06:16:24.528Z,26.40
2022-08-21T06:18:52.262Z,26.30
2022-08-21T06:21:20.436Z,26.20
2022-08-21T06:23:48.714Z,26.20
2022-08-21T06:26:16.312Z,26.10
2022-08-21T06:28:44.647Z,26.00
2022-08-21T06:31:16.745Z,26.00
2022-08-21T06:33:44.637Z,26.00
2022-08-21T06:36:12.819Z,25.90
2022-08-21T06:38:40.989Z,25.80
2022-08-21T06:41:10.266Z,25.80
2022-08-21T06:43:39.803Z,25.80
2022-08-21T06:46:08.980Z,25.70
2022-08-21T06:48:36.789Z,25.70
2022-08-21T06:51:05.019Z,25.70
2022-08-21T06:53:32.829Z,25.60
2022-08-21T06:56:00.745Z,25.60
2022-08-21T06:58:28.874Z,25.60
2022-08-21T07:01:00.604Z,25.60
2022-08-21T07:03:31.156Z,25.60
2022-08-21T07:05:59.580Z,25.60
2022-08-21T07:08:28.086Z,25.60
2022-08-21T07:10:57.379Z,25.60
2022-08-21T07:13:25.127Z,25.60
2022-08-21T07:15:52.987Z,25.50
2022-08-21T07:18:21.064Z,25.50
2022-08-21T07:20:49.184Z,25.50
2022-08-21T07:23:21.635Z,25.50
2022-08-21T07:25:49.708Z,25.50
2022-08-21T07:28:17.482Z,25.50
2022-08-21T07:30:45.390Z,25.50
2022-08-21T07:33:13.509Z,25.50
2022-08-21T07:35:41.220Z,25.50
2022-08-21T07:38:08.908Z,25.50
2022-08-21T07:40:37.080Z,25.50
2022-08-21T07:43:04.876Z,25.50
2022-08-21T07:45:32.515Z,25.60
2022-08-21T07:48:00.807Z,25.50
2022-08-21T07:50:28.383Z,25.50
2022-08-21T07:52:56.026Z,25.50
2022-08-21T07:55:24.553Z,25.50
2022-08-21T07:57:52.242Z,25.50
2022-08-21T08:00:22.229Z,25.50
2022-08-21T08:02:51.648Z,25.50
2022-08-21T08:05:21.384Z,25.50
2022-08-21T08:07:49.083Z,25.50
2022-08-21T08:10:17.635Z,25.50
2022-08-21T08:12:45.775Z,25.50
2022-08-21T08:15:18.209Z,25.50
2022-08-21T08:17:46.330Z,25.50
2022-08-21T08:20:14.922Z,25.50
2022-08-21T08:22:44.075Z,25.50
2022-08-21T08:25:19.651Z,25.50
2022-08-21T08:27:47.854Z,25.50
2022-08-21T08:30:16.759Z,25.50
2022-08-21T08:32:45.656Z,25.50
2022-08-21T08:35:14.342Z,25.50
2022-08-21T08:37:42.592Z,25.50
2022-08-21T08:40:17.692Z,25.40
2022-08-21T08:42:45.336Z,25.40
2022-08-21T08:45:14.716Z,25.50
2022-08-21T08:47:47.875Z,25.50
2022-08-21T08:50:18.946Z,25.50
2022-08-21T08:52:49.309Z,25.50
2022-08-21T08:55:22.342Z,25.50
2022-08-21T08:57:52.500Z,25.50
2022-08-21T09:00:21.967Z,25.50
2022-08-21T09:02:52.983Z,25.50
2022-08-21T09:05:28.534Z,25.50
2022-08-21T09:07:59.298Z,25.50
2022-08-21T09:10:27.299Z,25.50
2022-08-21T09:13:04.287Z,25.50
2022-08-21T09:15:40.909Z,25.50
2022-08-21T09:18:17.771Z,25.50
2022-08-21T09:20:51.682Z,25.50
2022-08-21T09:23:22.265Z,25.50
2022-08-21T09:26:10.526Z,25.50
2022-08-21T09:28:38.357Z,25.50
2022-08-21T09:31:12.947Z,25.50
2022-08-21T09:33:40.764Z,25.40
2022-08-21T09:36:09.225Z,25.40
2022-08-21T09:38:38.375Z,25.50
2022-08-21T09:41:08.306Z,25.40
2022-08-21T09:43:37.211Z,25.40
2022-08-21T09:46:04.806Z,25.40
2022-08-21T09:48:39.760Z,25.40
2022-08-21T09:51:10.428Z,25.40
2022-08-21T09:53:43.615Z,25.40
2022-08-21T09:56:39.569Z,25.40
2022-08-21T09:59:18.879Z,25.50
2022-08-21T10:01:48.820Z,25.40
2022-08-21T10:04:20.771Z,25.50
2022-08-21T10:06:48.533Z,25.40
2022-08-21T10:09:21.498Z,25.40
2022-08-21T10:12:02.202Z,25.40
2022-08-21T10:14:32.580Z,25.40
2022-08-21T10:17:11.730Z,25.40
2022-08-21T10:19:42.479Z,25.50
2022-08-21T10:22:13.583Z,25.40
2022-08-21T10:24:54.251Z,25.50
2022-08-21T10:27:34.445Z,25.50
2022-08-21T10:30:08.633Z,25.50
2022-08-21T10:32:42.685Z,25.40
2022-08-21T10:35:19.504Z,25.50
2022-08-21T10:37:47.735Z,25.50
2022-08-21T10:40:21.322Z,25.50
2022-08-21T10:43:05.030Z,25.40
2022-08-21T10:45:38.167Z,25.50
2022-08-21T10:48:07.653Z,25.60
2022-08-21T10:50:48.120Z,25.60
2022-08-21T10:53:34.768Z,25.60
2022-08-21T10:56:11.630Z,25.60
2022-08-21T10:58:45.161Z,25.60
2022-08-21T11:01:15.274Z,25.60
2022-08-21T11:03:45.660Z,25.60
2022-08-21T11:06:19.701Z,25.60
2022-08-21T11:08:52.448Z,25.60
2022-08-21T11:11:22.569Z,25.70
2022-08-21T11:13:51.348Z,25.60
2022-08-21T11:16:22.757Z,25.60
2022-08-21T11:18:55.167Z,25.60
2022-08-21T11:21:29.179Z,25.70
2022-08-21T11:23:57.206Z,25.70
2022-08-21T11:26:34.219Z,25.70
2022-08-21T11:29:22.112Z,25.70
2022-08-21T11:31:49.881Z,25.70
2022-08-21T11:34:20.883Z,25.70
2022-08-21T11:37:24.324Z,25.80
2022-08-21T11:39:52.375Z,25.80
2022-08-21T11:42:40.764Z,25.80
2022-08-21T11:45:11.793Z,25.80
2022-08-21T11:48:02.352Z,25.80
2022-08-21T11:50:35.077Z,25.80
2022-08-21T11:53:10.156Z,25.80
2022-08-21T11:55:47.513Z,25.80
2022-08-21T11:58:22.334Z,25.80
2022-08-21T12:01:02.156Z,25.80
2022-08-21T12:03:53.695Z,25.80
2022-08-21T12:06:29.882Z,25.80
2022-08-21T12:08:59.603Z,25.80
2022-08-21T12:11:29.759Z,25.80
2022-08-21T12:14:01.300Z,25.80
2022-08-21T12:16:39.487Z,25.90
2022-08-21T12:19:12.309Z,25.90
2022-08-21T12:21:52.176Z,25.80
2022-08-21T12:24:30.511Z,25.90
2022-08-21T12:27:13.725Z,25.80
2022-08-21T12:29:47.192Z,25.90
2022-08-21T12:32:14.755Z,25.90
2022-08-21T12:34:46.018Z,25.80
2022-08-21T12:37:22.568Z,25.90
2022-08-21T12:39:52.875Z,25.90
2022-08-21T12:42:23.769Z,25.90
2022-08-21T12:44:55.011Z,25.90
2022-08-21T12:47:31.232Z,25.80
2022-08-21T12:50:05.976Z,25.80
2022-08-21T12:52:50.366Z,25.90
2022-08-21T12:55:26.656Z,25.90
2022-08-21T12:57:54.653Z,25.90
2022-08-21T13:00:23.860Z,26.00
2022-08-21T13:02:53.339Z,26.00
2022-08-21T13:05:35.678Z,25.90
2022-08-21T13:08:07.995Z,25.90
2022-08-21T13:10:36.758Z,25.90
2022-08-21T13:13:12.739Z,25.90
2022-08-21T13:15:42.293Z,25.90
2022-08-21T13:18:23.739Z,25.90
2022-08-21T13:20:51.926Z,25.90
2022-08-21T13:23:30.391Z,25.90
2022-08-21T13:25:59.019Z,25.90
2022-08-21T13:28:34.384Z,25.90
2022-08-21T13:31:02.936Z,25.90
2022-08-21T13:33:34.822Z,25.90
2022-08-21T13:36:05.557Z,25.90
2022-08-21T13:38:35.582Z,25.90
2022-08-21T13:41:05.827Z,25.90
2022-08-21T13:43:35.307Z,25.90
2022-08-21T13:46:07.883Z,26.00
2022-08-21T13:48:36.123Z,25.90
2022-08-21T13:51:04.499Z,25.90
2022-08-21T13:53:35.281Z,25.90
2022-08-21T13:56:04.571Z,25.90
2022-08-21T13:58:52.978Z,25.90
2022-08-21T14:01:33.169Z,25.90
2022-08-21T14:04:06.548Z,25.90
2022-08-21T14:06:35.704Z,26.00
2022-08-21T14:09:12.075Z,26.00
2022-08-21T14:11:40.678Z,26.00
2022-08-21T14:14:22.861Z,26.00
2022-08-21T14:16:55.463Z,26.00
2022-08-21T14:19:25.282Z,26.00
2022-08-21T14:21:53.045Z,26.00
2022-08-21T14:24:24.081Z,26.00
2022-08-21T14:26:53.135Z,26.00
2022-08-21T14:29:23.097Z,25.90
2022-08-21T14:31:57.981Z,25.90
2022-08-21T14:34:30.766Z,25.90
2022-08-21T14:37:00.741Z,25.90
2022-08-21T14:39:28.812Z,25.90
2022-08-21T14:41:58.501Z,25.90
2022-08-21T14:44:26.509Z,25.90
2022-08-21T14:46:56.064Z,25.90
2022-08-21T14:49:27.686Z,25.80
2022-08-21T14:51:58.836Z,25.90
2022-08-21T14:54:32.310Z,25.90
2022-08-21T14:57:06.345Z,25.90
2022-08-21T14:59:34.414Z,25.90
2022-08-21T15:02:02.904Z,25.90
2022-08-21T15:04:30.902Z,25.90
2022-08-21T15:06:58.705Z,25.90
2022-08-21T15:09:26.995Z,25.80
2022-08-21T15:11:56.387Z,25.80
2022-08-21T15:14:27.394Z,25.80
2022-08-21T15:16:55.373Z,25.80
2022-08-21T15:19:23.032Z,25.80
2022-08-21T15:21:50.893Z,25.80
2022-08-21T15:24:18.872Z,25.80
2022-08-21T15:26:46.898Z,25.80
2022-08-21T15:29:15.766Z,25.80
2022-08-21T15:31:58.765Z,25.80
2022-08-21T15:34:28.424Z,25.80
2022-08-21T15:36:57.371Z,25.80
2022-08-21T15:39:30.298Z,25.80
2022-08-21T15:42:00.120Z,25.80
2022-08-21T15:44:39.265Z,25.80
2022-08-21T15:47:11.218Z,25.80
2022-08-21T15:49:38.963Z,25.80
2022-08-21T15:52:06.657Z,25.80
2022-08-21T15:54:34.734Z,25.80
2022-08-21T15:57:02.528Z,25.80
2022-08-21T15:59:33.606Z,25.80
2022-08-21T16:02:01.764Z,25.80
2022-08-21T16:04:30.010Z,25.80
2022-08-21T16:07:03.931Z,25.80
2022-08-21T16:09:34.603Z,25.80
2022-08-21T16:12:02.763Z,25.80
2022-08-21T16:14:31.596Z,25.80
2022-08-21T16:16:59.765Z,25.80
2022-08-21T16:19:29.060Z,25.80
2022-08-21T16:21:56.716Z,25.80
2022-08-21T16:24:24.758Z,25.80
2022-08-21T16:26:57.985Z,25.70
2022-08-21T16:29:30.411Z,25.70
2022-08-21T16:31:58.083Z,25.70
2022-08-21T16:34:26.365Z,25.80
2022-08-21T16:36:54.186Z,25.70
2022-08-21T16:39:21.988Z,25.70
2022-08-21T16:41:51.315Z,25.70
2022-08-21T16:44:20.177Z,25.80
2022-08-21T16:46:48.179Z,25.70
2022-08-21T16:49:16.208Z,25.70
2022-08-21T16:51:44.112Z,25.70
2022-08-21T16:54:12.325Z,25.70
2022-08-21T16:56:44.581Z,25.70
2022-08-21T16:59:15.067Z,25.70
2022-08-21T17:01:46.550Z,25.70
2022-08-21T17:04:14.491Z,25.70
2022-08-21T17:06:42.468Z,25.70
2022-08-21T17:09:10.528Z,25.70
2022-08-21T17:11:39.750Z,25.70
2022-08-21T17:14:08.904Z,25.70
2022-08-21T17:16:38.303Z,25.70
2022-08-21T17:19:07.856Z,25.70
2022-08-21T17:21:36.010Z,25.70
2022-08-21T17:24:04.206Z,25.60
2022-08-21T17:26:32.432Z,25.60
2022-08-21T17:29:00.313Z,25.60
2022-08-21T17:31:28.851Z,25.60
2022-08-21T17:33:56.731Z,25.60
2022-08-21T17:36:25.814Z,25.60
2022-08-21T17:38:54.429Z,25.60
2022-08-21T17:41:22.661Z,25.60
2022-08-21T17:43:51.740Z,25.60
2022-08-21T17:46:20.987Z,25.60
2022-08-21T17:48:48.804Z,25.60
2022-08-21T17:51:16.398Z,25.70
2022-08-21T17:53:45.238Z,25.80
2022-08-21T17:56:14.274Z,25.80
2022-08-21T17:58:46.694Z,25.90
2022-08-21T18:01:14.912Z,25.90
2022-08-21T18:03:43.029Z,26.00
2022-08-21T18:06:13.388Z,26.00
2022-08-21T18:08:45.246Z,26.10
2022-08-21T18:11:18.050Z,26.10
2022-08-21T18:13:53.139Z,26.20
2022-08-21T18:16:21.486Z,26.20
2022-08-21T18:18:49.459Z,26.30
2022-08-21T18:21:17.494Z,26.30
2022-08-21T18:23:45.254Z,26.30
2022-08-21T18:26:19.009Z,26.30
2022-08-21T18:28:47.649Z,26.40
2022-08-21T18:31:15.279Z,26.40
2022-08-21T18:33:43.635Z,26.40
2022-08-21T18:36:27.561Z,26.40
2022-08-21T18:39:13.580Z,26.50
2022-08-21T18:41:46.245Z,26.50
2022-08-21T18:44:15.044Z,26.50
2022-08-21T18:46:48.733Z,26.60
2022-08-21T18:49:17.313Z,26.60
2022-08-21T18:51:46.534Z,26.60
2022-08-21T18:54:14.988Z,26.60
2022-08-21T18:56:43.522Z,26.60
2022-08-21T18:59:12.277Z,26.60
2022-08-21T19:01:41.283Z,26.70
2022-08-21T19:04:17.989Z,26.70
2022-08-21T19:06:53.274Z,26.70
2022-08-21T19:09:22.151Z,26.70
2022-08-21T19:11:51.870Z,26.70
2022-08-21T19:14:19.651Z,26.70
2022-08-21T19:16:51.030Z,26.70
2022-08-21T19:19:18.838Z,26.60
2022-08-21T19:21:49.353Z,26.60
2022-08-21T19:24:18.230Z,26.60
2022-08-21T19:26:55.765Z,26.60
2022-08-21T19:29:34.640Z,26.60
2022-08-21T19:32:06.710Z,26.60
2022-08-21T19:34:36.413Z,26.60
2022-08-21T19:37:06.457Z,26.60
2022-08-21T19:39:44.886Z,26.60
2022-08-21T19:42:14.907Z,26.60
2022-08-21T19:44:43.504Z,26.70
2022-08-21T19:47:18.829Z,26.70
2022-08-21T19:49:52.721Z,26.70
2022-08-21T19:52:21.189Z,26.70
2022-08-21T19:54:50.560Z,26.70
2022-08-21T19:57:18.677Z,26.70
2022-08-21T19:59:46.662Z,26.70
2022-08-21T20:02:17.573Z,26.70
2022-08-21T20:04:53.274Z,26.70
2022-08-21T20:07:26.427Z,26.80
2022-08-21T20:09:56.502Z,26.80
2022-08-21T20:12:25.048Z,26.80
2022-08-21T20:14:53.523Z,26.80
2022-08-21T20:17:21.707Z,26.80
2022-08-21T20:19:54.403Z,26.80
2022-08-21T20:22:24.110Z,26.80
2022-08-21T20:24:52.091Z,26.80
2022-08-21T20:27:24.270Z,26.70
2022-08-21T20:29:52.505Z,26.70
2022-08-21T20:32:20.225Z,26.80
2022-08-21T20:34:52.079Z,26.80
2022-08-21T20:37:21.806Z,26.80
2022-08-21T20:40:12.280Z,26.80
2022-08-21T20:42:44.681Z,26.80
2022-08-21T20:45:18.504Z,26.80
2022-08-21T20:47:52.754Z,26.80
2022-08-21T20:50:38.811Z,26.90
2022-08-21T20:53:12.249Z,26.90
2022-08-21T20:55:44.150Z,26.90
2022-08-21T20:58:15.908Z,26.90
2022-08-21T21:00:43.978Z,26.90
2022-08-21T21:03:30.297Z,26.90
2022-08-21T21:06:01.776Z,26.90
2022-08-21T21:08:32.802Z,26.90
2022-08-21T21:11:02.892Z,26.80
2022-08-21T21:13:50.057Z,26.70
2022-08-21T21:16:23.830Z,26.70
2022-08-21T21:19:01.616Z,26.60
2022-08-21T21:21:37.355Z,26.60
2022-08-21T21:24:12.179Z,26.60
2022-08-21T21:26:46.102Z,26.50
2022-08-21T21:29:21.613Z,26.40
2022-08-21T21:31:51.339Z,26.40
2022-08-21T21:34:22.800Z,26.30
2022-08-21T21:39:46.057Z,26.20
2022-08-21T21:42:31.785Z,26.10
2022-08-21T21:45:10.087Z,26.10
2022-08-21T21:48:13.252Z,26.10
2022-08-21T21:50:47.243Z,26.00
2022-08-21T21:53:17.798Z,26.00
2022-08-21T21:55:55.407Z,25.90
2022-08-21T21:58:43.568Z,25.90
2022-08-21T22:01:28.645Z,25.90
2022-08-21T22:04:11.558Z,25.80
2022-08-21T22:07:07.993Z,25.80
2022-08-21T22:09:42.096Z,25.80
2022-08-21T22:12:26.481Z,25.80
2022-08-21T22:14:56.045Z,25.70
2022-08-21T22:17:35.262Z,25.70
2022-08-21T22:20:07.011Z,25.80
2022-08-21T22:22:36.293Z,25.80
2022-08-21T22:25:18.953Z,25.90
2022-08-21T22:27:49.279Z,25.90
2022-08-21T22:30:36.769Z,25.90
2022-08-21T22:33:12.496Z,25.90
2022-08-21T22:35:41.153Z,25.90
2022-08-21T22:38:20.559Z,26.00
2022-08-21T22:40:50.604Z,26.00
2022-08-21T22:43:20.324Z,26.00
2022-08-21T22:45:54.175Z,26.10
2022-08-21T22:48:23.318Z,26.10
2022-08-21T22:51:00.993Z,26.10
2022-08-21T22:53:30.450Z,26.10
2022-08-21T22:56:00.704Z,26.10
2022-08-21T22:58:30.666Z,26.10
2022-08-21T23:00:59.023Z,26.10
2022-08-21T23:03:26.800Z,26.10
2022-08-21T23:06:00.361Z,26.10
2022-08-21T23:08:31.508Z,26.10
2022-08-21T23:11:05.728Z,26.10
2022-08-21T23:13:42.051Z,26.10
2022-08-21T23:16:28.559Z,26.10
2022-08-21T23:19:14.501Z,26.20
2022-08-21T23:21:54.407Z,26.10
2022-08-21T23:24:46.617Z,26.10
2022-08-21T23:27:23.268Z,26.20
2022-08-21T23:30:04.685Z,26.20
2022-08-21T23:32:35.653Z,26.20
2022-08-21T23:35:23.106Z,26.20
2022-08-21T23:37:59.594Z,26.20
2022-08-21T23:40:36.322Z,26.20
2022-08-21T23:43:15.573Z,26.20
2022-08-21T23:45:50.134Z,26.20
2022-08-21T23:48:29.600Z,26.20
2022-08-21T23:51:03.015Z,26.20
2022-08-21T23:56:43.358Z,26.20
2022-08-21T23:59:11.093Z,26.20
